Time;durP1;ratioP1;P1;durP2;ratioP2;P2;SDS_P1;SDS_P2;PMS_P1;PMS_P2;Temp;Humidity;BMP_temperature;BMP_pressure;BME280_temperature;BME280_humidity;BME280_pressure;Samples;Min_cycle;Max_cycle;Signal;HPM_P1;HPM_P2
2024/04/08 00:01:28;;;;;;;1999.90;999.90;;;16.10;99.90;;;;;;5063062;28;20499;-66
2024/04/08 00:03:53;;;;;;;1999.90;999.90;;;16.00;99.90;;;;;;5058073;28;20544;-65
2024/04/08 00:06:19;;;;;;;1999.90;999.90;;;16.00;99.90;;;;;;5052832;28;20044;-65
2024/04/08 00:08:45;;;;;;;1999.90;999.90;;;16.00;99.90;;;;;;5052772;28;20033;-65
2024/04/08 00:11:10;;;;;;;1999.90;999.90;;;15.90;99.90;;;;;;5057102;28;20021;-65
2024/04/08 00:13:40;;;;;;;1999.90;999.90;;;15.90;99.90;;;;;;5053854;28;20130;-67
2024/04/08 00:16:06;;;;;;;1999.90;999.90;;;15.90;99.90;;;;;;5052453;28;20127;-65
2024/04/08 00:18:32;;;;;;;1999.90;999.90;;;15.90;99.90;;;;;;5065129;28;20025;-67
2024/04/08 00:21:05;;;;;;;1999.90;999.90;;;15.80;99.90;;;;;;5054109;28;20039;-66
2024/04/08 00:23:32;;;;;;;1999.90;999.90;;;15.80;99.90;;;;;;5055847;28;20033;-65
2024/04/08 00:26:06;;;;;;;1999.90;999.90;;;15.70;99.90;;;;;;5058050;28;20109;-66
2024/04/08 00:28:37;;;;;;;1999.90;999.90;;;15.80;99.90;;;;;;5056936;28;20465;-65
2024/04/08 00:31:07;;;;;;;1999.90;999.90;;;15.80;99.90;;;;;;5067002;28;20021;-65
2024/04/08 00:33:34;;;;;;;1999.90;999.90;;;15.80;99.90;;;;;;5056394;28;20394;-65
2024/04/08 00:36:01;;;;;;;1999.90;999.90;;;15.70;99.90;;;;;;5055922;28;20032;-68
2024/04/08 00:38:27;;;;;;;1999.90;999.90;;;15.70;99.90;;;;;;5058915;28;20039;-67
2024/04/08 00:40:53;;;;;;;1999.90;999.90;;;15.70;99.90;;;;;;5065286;28;20104;-65
2024/04/08 00:43:19;;;;;;;1999.90;999.90;;;15.80;99.90;;;;;;5057654;28;20113;-65
2024/04/08 00:45:48;;;;;;;1999.90;999.90;;;15.70;99.90;;;;;;5057354;28;20017;-65
2024/04/08 00:48:14;;;;;;;1999.90;999.90;;;15.80;99.90;;;;;;5054657;28;20036;-65
2024/04/08 00:50:44;;;;;;;1999.90;999.90;;;15.70;99.90;;;;;;5055565;28;20064;-65
2024/04/08 00:53:11;;;;;;;1999.90;999.90;;;15.60;99.90;;;;;;5060151;28;20389;-65
2024/04/08 00:55:38;;;;;;;1999.90;999.90;;;15.60;99.90;;;;;;5065015;28;20159;-67
2024/04/08 00:58:04;;;;;;;1999.90;999.90;;;15.70;99.90;;;;;;5059604;28;21506;-65
2024/04/08 01:00:30;;;;;;;1999.90;999.90;;;15.80;99.90;;;;;;5057141;28;20105;-68
2024/04/08 01:02:58;;;;;;;1999.90;999.90;;;15.70;99.90;;;;;;5066783;28;20408;-65
2024/04/08 01:05:24;;;;;;;1999.90;999.90;;;15.80;99.90;;;;;;5054604;28;20025;-64
2024/04/08 01:07:50;;;;;;;1999.90;999.90;;;15.80;99.90;;;;;;5056650;28;20043;-67
2024/04/08 01:10:17;;;;;;;1999.90;999.90;;;15.60;99.90;;;;;;5053769;28;20492;-68
2024/04/08 01:12:43;;;;;;;1999.90;999.90;;;15.60;99.90;;;;;;5052912;28;20128;-64
2024/04/08 01:15:08;;;;;;;1999.90;999.90;;;15.60;99.90;;;;;;5052452;28;20242;-65
2024/04/08 01:17:34;;;;;;;1999.90;999.90;;;15.60;99.90;;;;;;5061773;28;20534;-66
2024/04/08 01:20:00;;;;;;;1999.90;999.90;;;15.50;99.90;;;;;;5054368;28;20025;-68
2024/04/08 01:22:31;;;;;;;1999.90;999.90;;;15.40;99.90;;;;;;5056777;28;20056;-67
2024/04/08 01:25:00;;;;;;;1999.90;999.90;;;15.40;99.90;;;;;;5059989;28;20108;-65
2024/04/08 01:27:26;;;;;;;1999.90;999.90;;;15.40;99.90;;;;;;5058107;28;20031;-64
2024/04/08 01:29:52;;;;;;;1999.90;999.90;;;15.40;99.90;;;;;;5055284;28;20035;-64
2024/04/08 01:32:18;;;;;;;1999.90;999.90;;;15.40;99.90;;;;;;5062933;28;20021;-65
2024/04/08 01:34:44;;;;;;;1999.90;999.90;;;15.40;99.90;;;;;;5052427;28;20025;-65
2024/04/08 01:37:09;;;;;;;1999.90;999.90;;;15.40;99.90;;;;;;5054581;28;20516;-66
2024/04/08 01:39:35;;;;;;;1999.90;999.90;;;15.40;99.90;;;;;;5055300;28;20651;-66
2024/04/08 01:42:01;;;;;;;1999.90;999.90;;;15.40;99.90;;;;;;5064120;28;20099;-66
2024/04/08 01:44:27;;;;;;;1999.90;999.90;;;15.30;99.90;;;;;;5065295;28;20136;-65
2024/04/08 01:46:53;;;;;;;1999.90;999.90;;;15.20;99.90;;;;;;5055334;28;20112;-66
2024/04/08 01:49:18;;;;;;;1999.90;999.90;;;15.30;99.90;;;;;;5053772;28;20070;-66
2024/04/08 01:51:44;;;;;;;1999.90;999.90;;;15.30;99.90;;;;;;5054812;28;20079;-66
2024/04/08 01:54:12;;;;;;;1999.90;999.90;;;15.40;99.90;;;;;;5059075;28;20668;-66
2024/04/08 01:56:40;;;;;;;1999.90;999.90;;;15.30;99.90;;;;;;5052232;28;20387;-66
2024/04/08 01:59:06;;;;;;;1999.90;999.90;;;15.20;99.90;;;;;;5057051;28;20064;-66
2024/04/08 02:01:32;;;;;;;1999.90;999.90;;;15.20;99.90;;;;;;5063057;28;20059;-65
2024/04/08 02:03:58;;;;;;;1999.90;999.90;;;15.10;99.90;;;;;;5061253;28;20437;-66
2024/04/08 02:06:23;;;;;;;1999.90;999.90;;;15.00;99.90;;;;;;5055923;28;20033;-65
2024/04/08 02:08:49;;;;;;;1999.90;999.90;;;15.00;99.90;;;;;;5051209;28;20100;-66
2024/04/08 02:11:15;;;;;;;1999.90;999.90;;;15.10;99.90;;;;;;5060761;28;20102;-65
2024/04/08 02:13:44;;;;;;;1999.90;999.90;;;15.00;99.90;;;;;;5058134;28;20051;-66
2024/04/08 02:16:10;;;;;;;1999.90;999.90;;;15.10;99.90;;;;;;5052498;28;20028;-66
2024/04/08 02:18:35;;;;;;;1999.90;999.90;;;15.10;99.90;;;;;;5051161;28;20408;-65
2024/04/08 02:21:02;;;;;;;1999.90;999.90;;;15.10;99.90;;;;;;5053160;28;20446;-66
2024/04/08 02:23:28;;;;;;;1999.90;999.90;;;15.10;99.90;;;;;;5055401;28;20120;-65
2024/04/08 02:25:53;;;;;;;1999.90;999.90;;;15.00;99.90;;;;;;5050458;28;20103;-66
2024/04/08 02:28:19;;;;;;;1999.90;999.90;;;14.80;99.90;;;;;;5061364;28;20033;-66
2024/04/08 02:30:45;;;;;;;1999.90;999.90;;;14.80;99.90;;;;;;5070310;28;20027;-66
2024/04/08 02:33:10;;;;;;;1999.90;999.90;;;14.80;99.90;;;;;;5051683;28;20045;-65
2024/04/08 02:35:37;;;;;;;1999.90;999.90;;;14.90;99.90;;;;;;5050443;28;20406;-66
2024/04/08 02:38:06;;;;;;;1999.90;999.90;;;14.90;99.90;;;;;;5050185;28;20029;-66
2024/04/08 02:40:32;;;;;;;1999.90;999.90;;;14.90;99.90;;;;;;5060094;28;20029;-65
2024/04/08 02:42:59;;;;;;;1999.90;999.90;;;15.00;99.90;;;;;;5051141;28;20044;-65
2024/04/08 02:45:25;;;;;;;1999.90;999.90;;;14.90;99.90;;;;;;5050573;28;20556;-65
2024/04/08 02:47:50;;;;;;;1999.90;999.90;;;14.90;99.90;;;;;;5050442;28;20059;-66
2024/04/08 02:50:16;;;;;;;1999.90;999.90;;;15.00;99.90;;;;;;5055017;28;20047;-65
2024/04/08 02:52:42;;;;;;;1999.90;999.90;;;14.90;99.90;;;;;;5055413;28;20512;-65
2024/04/08 02:55:08;;;;;;;1999.90;999.90;;;14.80;99.90;;;;;;5053753;28;20029;-65
2024/04/08 02:57:34;;;;;;;1999.90;999.90;;;14.70;99.90;;;;;;5054386;28;20037;-65
2024/04/08 02:59:59;;;;;;;1999.90;999.90;;;14.60;99.90;;;;;;5067536;28;20500;-66
2024/04/08 03:02:25;;;;;;;1999.90;999.90;;;14.70;99.90;;;;;;5057174;28;20029;-65
2024/04/08 03:04:51;;;;;;;1999.90;999.90;;;14.70;99.90;;;;;;5060382;28;20374;-65
2024/04/08 03:07:17;;;;;;;1999.90;999.90;;;14.70;99.90;;;;;;5055472;28;20028;-66
2024/04/08 03:09:47;;;;;;;1999.90;999.90;;;14.60;99.90;;;;;;5052936;28;20528;-65
2024/04/08 03:12:13;;;;;;;1999.90;999.90;;;14.60;99.90;;;;;;5051544;28;20107;-66
2024/04/08 03:14:39;;;;;;;1999.90;999.90;;;14.60;99.90;;;;;;5058729;28;20129;-65
2024/04/08 03:17:05;;;;;;;1999.90;999.90;;;14.40;99.90;;;;;;5050499;28;20102;-66
2024/04/08 03:19:31;;;;;;;1999.90;999.90;;;14.40;99.90;;;;;;5050721;28;20029;-66
2024/04/08 03:21:56;;;;;;;1999.90;999.90;;;14.40;99.90;;;;;;5056289;28;20385;-65
2024/04/08 03:24:22;;;;;;;1999.90;999.90;;;14.40;99.90;;;;;;5051284;28;20465;-66
2024/04/08 03:26:48;;;;;;;1999.90;999.90;;;14.20;99.90;;;;;;5056948;28;20032;-65
2024/04/08 03:29:13;;;;;;;1999.90;999.90;;;14.20;99.90;;;;;;5056065;28;20045;-65
2024/04/08 03:31:39;;;;;;;1999.90;999.90;;;14.20;99.90;;;;;;5059883;28;20017;-65
2024/04/08 03:34:05;;;;;;;1999.90;999.90;;;14.10;99.90;;;;;;5065022;28;20039;-65
2024/04/08 03:36:31;;;;;;;1999.90;999.90;;;14.10;99.90;;;;;;5059460;28;20025;-65
2024/04/08 03:38:56;;;;;;;1999.90;999.90;;;14.00;99.90;;;;;;5054814;28;20020;-65
2024/04/08 03:41:22;;;;;;;1999.90;999.90;;;14.00;99.90;;;;;;5053440;28;20476;-65
2024/04/08 03:43:48;;;;;;;1999.90;999.90;;;13.90;99.90;;;;;;5061885;28;20647;-66
2024/04/08 03:46:14;;;;;;;1999.90;999.90;;;14.00;99.90;;;;;;5061047;28;20023;-66
2024/04/08 03:48:39;;;;;;;1999.90;999.90;;;13.90;99.90;;;;;;5069537;28;20422;-66
2024/04/08 03:51:11;;;;;;;1999.90;999.90;;;13.90;99.90;;;;;;5063629;28;20044;-65
2024/04/08 03:53:38;;;;;;;1999.90;999.90;;;13.80;99.90;;;;;;5060555;28;20037;-66
2024/04/08 03:56:08;;;;;;;1999.90;999.90;;;13.80;99.90;;;;;;5057152;28;20025;-65
2024/04/08 03:58:33;;;;;;;1999.90;999.90;;;13.80;99.90;;;;;;5053600;28;20031;-65
2024/04/08 04:01:00;;;;;;;1999.90;999.90;;;13.80;99.90;;;;;;5053875;28;20401;-66
2024/04/08 04:03:26;;;;;;;1999.90;999.90;;;13.70;99.90;;;;;;5055331;28;20104;-66
2024/04/08 04:05:52;;;;;;;1999.90;999.90;;;13.80;99.90;;;;;;5060762;28;20111;-66
2024/04/08 04:08:17;;;;;;;1999.90;999.90;;;13.70;99.90;;;;;;5061365;28;20512;-65
2024/04/08 04:10:44;;;;;;;1999.90;999.90;;;13.60;99.90;;;;;;5062659;28;20025;-65
2024/04/08 04:13:10;;;;;;;1999.90;999.90;;;13.60;99.90;;;;;;5054015;28;20086;-65
2024/04/08 04:15:36;;;;;;;1999.90;999.90;;;13.60;99.90;;;;;;5054233;28;20212;-64
2024/04/08 04:18:02;;;;;;;1999.90;999.90;;;13.60;99.90;;;;;;5058439;28;20217;-65
2024/04/08 04:20:41;;;;;;;1999.90;999.90;;;13.70;99.90;;;;;;5059019;28;20493;-65
2024/04/08 04:23:11;;;;;;;1999.90;999.90;;;13.80;99.90;;;;;;5061271;28;20051;-66
2024/04/08 04:25:37;;;;;;;1999.90;999.90;;;13.70;99.90;;;;;;5065504;28;20024;-65
2024/04/08 04:28:04;;;;;;;1999.90;999.90;;;13.80;99.90;;;;;;5060720;28;20029;-65
2024/04/08 04:30:29;;;;;;;1999.90;999.90;;;13.80;99.90;;;;;;5058420;28;20020;-65
2024/04/08 04:32:56;;;;;;;1999.90;999.90;;;13.80;99.90;;;;;;5070948;28;20033;-65
2024/04/08 04:35:23;;;;;;;1999.90;999.90;;;13.90;99.90;;;;;;5073008;28;20391;-66
2024/04/08 04:37:50;;;;;;;1999.90;999.90;;;13.90;99.90;;;;;;5065833;28;20136;-65
2024/04/08 04:40:16;;;;;;;1999.90;999.90;;;13.90;99.90;;;;;;5058457;28;20433;-65
2024/04/08 04:42:45;;;;;;;1999.90;999.90;;;14.00;99.90;;;;;;5059384;28;20017;-65
2024/04/08 04:45:12;;;;;;;1999.90;999.90;;;14.00;99.90;;;;;;5070888;28;20029;-65
2024/04/08 04:47:38;;;;;;;1999.90;999.90;;;14.10;99.90;;;;;;5061665;28;20028;-64
2024/04/08 04:50:04;;;;;;;1999.90;999.90;;;14.00;99.90;;;;;;5069253;28;21668;-65
2024/04/08 04:52:30;;;;;;;1999.90;999.90;;;14.00;99.90;;;;;;5059374;28;20020;-65
2024/04/08 04:56:34;;;;;;;1999.90;999.90;;;14.10;99.90;;;;;;5429451;26;20338;-64
2024/04/08 04:59:00;;;;;;;1999.90;999.90;;;14.20;99.90;;;;;;5416186;26;20008;-64
2024/04/08 05:01:26;;;;;;;1999.90;999.90;;;14.30;99.90;;;;;;5396105;26;20451;-64
2024/04/08 05:03:51;;;;;;;1999.90;999.90;;;14.30;99.90;;;;;;5403281;26;20011;-64
2024/04/08 05:06:17;;;;;;;1999.90;999.90;;;14.30;99.90;;;;;;5406796;26;20406;-64
2024/04/08 05:08:43;;;;;;;1999.90;999.90;;;14.30;99.90;;;;;;5401100;26;20752;-64
2024/04/08 05:11:08;;;;;;;1999.90;999.90;;;14.20;99.90;;;;;;5397296;26;19996;-63
2024/04/08 05:13:34;;;;;;;1999.90;999.90;;;14.20;99.90;;;;;;5406917;26;20014;-64
2024/04/08 05:16:01;;;;;;;1999.90;999.90;;;14.30;99.90;;;;;;5413423;26;20014;-64
2024/04/08 05:18:28;;;;;;;1999.90;999.90;;;14.30;99.90;;;;;;5417863;26;20407;-64
2024/04/08 05:20:54;;;;;;;1999.90;999.90;;;14.30;99.90;;;;;;5400834;26;20023;-64
2024/04/08 05:23:21;;;;;;;1999.90;999.90;;;14.30;99.90;;;;;;5407623;26;19992;-64
2024/04/08 05:25:50;;;;;;;1999.90;999.90;;;14.40;99.90;;;;;;5396085;26;20533;-64
2024/04/08 05:28:16;;;;;;;1999.90;999.90;;;14.30;99.90;;;;;;5405082;26;20004;-64
2024/04/08 05:30:43;;;;;;;1999.90;999.90;;;14.40;99.90;;;;;;5399634;26;20081;-64
2024/04/08 05:33:08;;;;;;;1999.90;999.90;;;14.40;99.90;;;;;;5407038;26;20036;-64
2024/04/08 05:35:35;;;;;;;1999.90;999.90;;;14.30;99.90;;;;;;5412421;26;19996;-64
2024/04/08 05:38:01;;;;;;;1999.90;999.90;;;14.30;99.90;;;;;;5394620;26;20008;-64
2024/04/08 05:40:27;;;;;;;1999.90;999.90;;;14.30;99.90;;;;;;5400889;26;20024;-64
2024/04/08 05:42:53;;;;;;;1999.90;999.90;;;14.30;99.90;;;;;;5397922;26;20077;-63
2024/04/08 05:45:21;;;;;;;1999.90;999.90;;;14.40;99.90;;;;;;5379043;26;20004;-64
2024/04/08 05:47:53;;;;;;;1999.90;999.90;;;14.50;99.90;;;;;;5393190;26;20000;-65
2024/04/08 05:50:23;;;;;;;1999.90;999.90;;;14.50;99.90;;;;;;5390708;26;19992;-63
2024/04/08 05:52:49;;;;;;;1999.90;999.90;;;14.50;99.90;;;;;;5392828;26;20000;-64
2024/04/08 05:55:15;;;;;;;1999.90;999.90;;;14.60;99.90;;;;;;5390544;26;20031;-64
2024/04/08 05:57:41;;;;;;;1999.90;999.90;;;14.50;99.90;;;;;;5384959;26;20015;-65
2024/04/08 06:00:10;;;;;;;1999.90;999.90;;;14.50;99.90;;;;;;5394929;26;20494;-64
2024/04/08 06:02:36;;;;;;;1999.90;999.90;;;14.70;99.90;;;;;;5382317;26;19992;-65
2024/04/08 06:05:02;;;;;;;1999.90;999.90;;;14.80;99.90;;;;;;5380729;26;20000;-65
2024/04/08 06:07:28;;;;;;;1999.90;999.90;;;14.90;99.90;;;;;;5381891;26;20011;-65
2024/04/08 06:09:54;;;;;;;1999.90;999.90;;;15.00;99.90;;;;;;5370718;26;20011;-62
2024/04/08 06:12:20;;;;;;;1999.90;999.90;;;15.00;99.90;;;;;;5366940;26;20476;-62
2024/04/08 06:14:46;;;;;;;1999.90;999.90;;;15.00;99.90;;;;;;5362143;26;20313;-64
2024/04/08 06:17:12;;;;;;;1999.90;999.90;;;15.10;99.90;;;;;;5345544;26;20016;-63
2024/04/08 06:19:37;;;;;;;1999.90;999.90;;;15.20;99.90;;;;;;5356784;26;20065;-63
2024/04/08 06:22:03;;;;;;;1999.90;999.90;;;15.40;99.90;;;;;;5345251;26;20302;-63
2024/04/08 06:24:29;;;;;;;1999.90;999.90;;;15.50;99.90;;;;;;5347435;26;19997;-62
2024/04/08 06:26:54;;;;;;;1999.90;999.90;;;15.60;99.90;;;;;;5345360;26;20012;-63
2024/04/08 06:29:20;;;;;;;1999.90;999.90;;;15.70;99.90;;;;;;5347646;26;20080;-63
2024/04/08 06:31:46;;;;;;;1999.90;999.90;;;15.70;99.90;;;;;;5345848;26;20454;-62
2024/04/08 06:34:12;;;;;;;1999.90;999.90;;;15.70;99.90;;;;;;5359059;26;20325;-63
2024/04/08 06:36:38;;;;;;;1999.90;999.90;;;15.80;99.90;;;;;;5345171;26;20344;-62
2024/04/08 06:39:04;;;;;;;1999.90;999.90;;;15.80;99.90;;;;;;5368121;26;20015;-62
2024/04/08 06:41:30;;;;;;;1999.90;999.90;;;15.80;99.90;;;;;;5364729;26;20429;-64
2024/04/08 06:43:55;;;;;;;1999.90;999.90;;;15.90;99.90;;;;;;5345060;26;20462;-65
2024/04/08 06:46:21;;;;;;;1999.90;999.90;;;16.00;99.90;;;;;;5352059;26;20066;-63
2024/04/08 06:48:47;;;;;;;1999.90;999.90;;;16.10;99.90;;;;;;5344540;26;20041;-63
2024/04/08 06:51:12;;;;;;;1999.90;999.90;;;16.10;99.90;;;;;;5355827;26;20343;-63
2024/04/08 06:53:38;;;;;;;1999.90;999.90;;;16.10;99.90;;;;;;5366281;26;20341;-63
2024/04/08 06:56:04;;;;;;;1999.90;999.90;;;16.30;99.90;;;;;;5351126;26;20087;-62
2024/04/08 06:58:30;;;;;;;1999.90;999.90;;;16.30;99.90;;;;;;5353598;26;20092;-63
2024/04/08 07:00:56;;;;;;;1999.90;999.90;;;16.30;99.90;;;;;;5354522;26;20033;-63
2024/04/08 07:03:22;;;;;;;1999.90;999.90;;;16.40;99.90;;;;;;5365226;26;20022;-63
2024/04/08 07:05:47;;;;;;;1999.90;999.90;;;16.50;99.90;;;;;;5355448;26;19997;-63
2024/04/08 07:08:16;;;;;;;1999.90;999.90;;;16.60;99.90;;;;;;5344653;26;20016;-62
2024/04/08 07:10:45;;;;;;;1999.90;999.90;;;16.60;99.90;;;;;;5364364;26;20005;-63
2024/04/08 07:13:12;;;;;;;1999.90;999.90;;;16.70;99.90;;;;;;5344329;26;20025;-63
2024/04/08 07:15:38;;;;;;;1999.90;999.90;;;16.70;99.90;;;;;;5339837;26;20001;-62
2024/04/08 07:18:04;;;;;;;1999.90;999.90;;;16.70;99.90;;;;;;5346914;26;20011;-63
2024/04/08 07:20:31;;;;;;;1999.90;999.90;;;16.80;99.90;;;;;;5350511;26;20001;-62
2024/04/08 07:22:57;;;;;;;1999.90;999.90;;;16.80;99.90;;;;;;5343838;26;20012;-62
2024/04/08 07:25:23;;;;;;;1999.90;999.90;;;16.80;99.90;;;;;;5352429;26;19996;-63
2024/04/08 07:27:49;;;;;;;1999.90;999.90;;;17.00;99.90;;;;;;5350338;26;20006;-62
2024/04/08 07:30:15;;;;;;;1999.90;999.90;;;17.10;99.90;;;;;;5353081;26;20000;-63
2024/04/08 07:32:40;;;;;;;1999.90;999.90;;;17.30;99.90;;;;;;5349848;26;20080;-62
2024/04/08 07:35:07;;;;;;;1999.90;999.90;;;17.50;99.90;;;;;;5350169;26;20011;-63
2024/04/08 07:37:33;;;;;;;1999.90;999.90;;;17.60;99.90;;;;;;5376501;26;20000;-65
2024/04/08 07:39:59;;;;;;;1999.90;999.90;;;17.80;99.90;;;;;;5347430;26;20040;-63
2024/04/08 07:42:24;;;;;;;1999.90;999.90;;;18.00;99.90;;;;;;5346149;26;20008;-63
2024/04/08 07:44:51;;;;;;;1999.90;999.90;;;17.80;99.90;;;;;;5343914;26;20453;-63
2024/04/08 07:47:17;;;;;;;1999.90;999.90;;;17.80;99.90;;;;;;5353446;26;20004;-64
2024/04/08 07:49:47;;;;;;;1999.90;999.90;;;17.80;99.90;;;;;;5346323;26;20023;-63
2024/04/08 07:52:13;;;;;;;1999.90;999.90;;;17.90;99.90;;;;;;5370303;26;20069;-62
2024/04/08 07:54:39;;;;;;;1999.90;999.90;;;17.90;99.90;;;;;;5345876;26;20040;-63
2024/04/08 07:57:06;;;;;;;1999.90;999.90;;;17.90;99.90;;;;;;5352506;26;20001;-63
2024/04/08 07:59:32;;;;;;;1999.90;999.90;;;17.70;99.90;;;;;;5345488;26;20084;-63
2024/04/08 08:01:58;;;;;;;1999.90;999.90;;;17.70;99.90;;;;;;5349420;26;20462;-63
2024/04/08 08:04:24;;;;;;;1999.90;999.90;;;17.70;99.90;;;;;;5354152;26;20008;-63
2024/04/08 08:06:50;;;;;;;1999.90;999.90;;;17.60;99.90;;;;;;5355523;26;20000;-67
2024/04/08 08:09:16;;;;;;;1999.90;999.90;;;17.40;99.90;;;;;;5343358;26;20353;-65
2024/04/08 08:11:42;;;;;;;1999.90;999.90;;;17.30;99.90;;;;;;5359899;26;20439;-66
2024/04/08 08:14:08;;;;;;;1999.90;999.90;;;17.60;99.90;;;;;;5347913;26;20016;-62
2024/04/08 08:16:33;;;;;;;1999.90;999.90;;;17.60;99.90;;;;;;5347720;26;20469;-63
2024/04/08 08:18:59;;;;;;;1999.90;999.90;;;17.70;99.90;;;;;;5342642;26;20000;-64
2024/04/08 08:21:25;;;;;;;1999.90;999.90;;;17.90;99.90;;;;;;5359685;26;20009;-64
2024/04/08 08:23:50;;;;;;;1999.90;999.90;;;17.90;99.90;;;;;;5356339;26;20030;-63
2024/04/08 08:26:16;;;;;;;1999.90;999.90;;;18.00;99.90;;;;;;5358651;26;20004;-63
2024/04/08 08:28:42;;;;;;;1999.90;999.90;;;18.10;99.90;;;;;;5357656;26;19996;-63
2024/04/08 08:31:08;;;;;;;1999.90;999.90;;;18.30;99.90;;;;;;5355881;26;20447;-64
2024/04/08 08:33:33;;;;;;;1999.90;999.90;;;18.30;99.90;;;;;;5369976;26;20326;-64
2024/04/08 08:36:00;;;;;;;1999.90;999.90;;;18.40;99.90;;;;;;5348299;26;20005;-64
2024/04/08 08:38:25;;;;;;;1999.90;999.90;;;18.40;99.90;;;;;;5346635;26;20342;-64
2024/04/08 08:40:59;;;;;;;1999.90;999.90;;;18.50;99.90;;;;;;5343587;26;19997;-64
2024/04/08 08:43:29;;;;;;;1999.90;999.90;;;18.70;99.90;;;;;;5343893;26;20040;-64
2024/04/08 08:45:55;;;;;;;1999.90;999.90;;;18.80;99.90;;;;;;5353822;26;20001;-65
2024/04/08 08:48:21;;;;;;;1999.90;999.90;;;18.80;99.90;;;;;;5356707;26;19997;-64
2024/04/08 08:50:48;;;;;;;1999.90;999.90;;;18.90;99.90;;;;;;5342015;26;20001;-64
2024/04/08 08:53:15;;;;;;;1999.90;999.90;;;18.90;99.90;;;;;;5355707;26;20004;-64
2024/04/08 08:55:41;;;;;;;1999.90;999.90;;;18.80;99.90;;;;;;5342017;26;20032;-62
2024/04/08 08:58:10;;;;;;;1999.90;999.90;;;18.80;99.90;;;;;;5341392;26;20384;-65
2024/04/08 09:00:38;;;;;;;1999.90;999.90;;;18.70;99.90;;;;;;5362751;26;19993;-63
2024/04/08 09:03:14;;;;;;;1999.90;999.90;;;18.70;99.90;;;;;;5361600;26;20082;-63
2024/04/08 09:05:40;;;;;;;1999.90;999.90;;;18.80;99.90;;;;;;5346778;26;20337;-63
2024/04/08 09:08:06;;;;;;;1999.90;999.90;;;19.10;99.90;;;;;;5340875;26;19996;-63
2024/04/08 09:10:41;;;;;;;1999.90;999.90;;;19.10;99.90;;;;;;5354266;26;20004;-63
2024/04/08 09:13:23;;;;;;;1999.90;999.90;;;19.10;99.90;;;;;;5367109;26;20005;-63
2024/04/08 09:15:53;;;;;;;1999.90;999.90;;;19.30;99.90;;;;;;5349189;26;20001;-63
2024/04/08 09:18:20;;;;;;;1999.90;999.90;;;19.10;99.90;;;;;;5341582;26;20528;-63
2024/04/08 09:20:46;;;;;;;1999.90;999.90;;;19.20;99.90;;;;;;5337011;26;20041;-63
2024/04/08 09:23:12;;;;;;;1999.90;999.90;;;19.50;99.90;;;;;;5347197;26;20676;-63
2024/04/08 09:25:39;;;;;;;1999.90;999.90;;;19.70;99.90;;;;;;5355937;26;20153;-62
2024/04/08 09:28:06;;;;;;;1999.90;999.90;;;19.80;99.90;;;;;;5352111;26;20002;-64
2024/04/08 09:30:32;;;;;;;1999.90;999.90;;;19.80;99.90;;;;;;5338304;26;20341;-64
2024/04/08 09:32:58;;;;;;;1999.90;999.90;;;20.00;99.90;;;;;;5350956;26;20020;-64
2024/04/08 09:35:25;;;;;;;1999.90;999.90;;;20.40;99.90;;;;;;5364082;26;20066;-65
2024/04/08 09:37:54;;;;;;;1999.90;999.90;;;20.70;99.90;;;;;;5346384;26;20080;-63
2024/04/08 09:40:24;;;;;;;1999.90;999.90;;;21.00;99.90;;;;;;5356625;26;20709;-64
2024/04/08 09:42:51;;;;;;;1999.90;999.90;;;21.10;99.90;;;;;;5347363;26;19997;-63
2024/04/08 09:45:18;;;;;;;1999.90;999.90;;;20.90;99.90;;;;;;5356456;26;19997;-63
2024/04/08 09:47:45;;;;;;;1999.90;999.90;;;20.80;99.90;;;;;;5374570;26;20011;-64
2024/04/08 09:50:12;;;;;;;1999.90;999.90;;;21.00;99.90;;;;;;5361781;26;20079;-64
2024/04/08 09:52:39;;;;;;;1999.90;999.90;;;21.30;99.90;;;;;;5346418;26;20097;-63
2024/04/08 09:55:07;;;;;;;1999.90;999.90;;;21.40;99.90;;;;;;5369604;26;20336;-63
2024/04/08 09:57:43;;;;;;;1999.90;999.90;;;21.50;99.90;;;;;;5341845;26;20016;-63
2024/04/08 10:00:15;;;;;;;1999.90;999.90;;;21.70;99.90;;;;;;5343507;26;20450;-63
2024/04/08 10:02:43;;;;;;;1999.90;999.90;;;21.80;99.90;;;;;;5368951;26;20659;-64
2024/04/08 10:05:12;;;;;;;1999.90;999.90;;;21.90;99.90;;;;;;5346022;26;20016;-64
2024/04/08 10:07:39;;;;;;;1999.90;999.90;;;22.00;99.90;;;;;;5348546;26;20449;-64
2024/04/08 10:10:07;;;;;;;1999.90;999.90;;;21.80;99.90;;;;;;5349724;26;20040;-63
2024/04/08 10:12:34;;;;;;;1999.90;999.90;;;21.90;99.90;;;;;;5343733;26;20055;-63
2024/04/08 10:15:10;;;;;;;1999.90;999.90;;;22.00;99.90;;;;;;5349114;26;20005;-64
2024/04/08 10:17:36;;;;;;;1999.90;999.90;;;21.90;99.90;;;;;;5344617;26;20001;-64
2024/04/08 10:20:05;;;;;;;1999.90;999.90;;;22.00;99.90;;;;;;5357060;26;20096;-63
2024/04/08 10:22:33;;;;;;;1999.90;999.90;;;22.20;99.90;;;;;;5361858;26;20000;-64
2024/04/08 10:25:00;;;;;;;1999.90;999.90;;;22.30;99.90;;;;;;5355749;26;20099;-64
2024/04/08 10:27:26;;;;;;;1999.90;999.90;;;22.30;99.90;;;;;;5377042;26;20012;-63
2024/04/08 10:29:58;;;;;;;1999.90;999.90;;;22.60;99.90;;;;;;5347788;26;20005;-64
2024/04/08 10:32:25;;;;;;;1999.90;999.90;;;22.80;99.90;;;;;;5346854;26;20011;-64
2024/04/08 10:34:55;;;;;;;1999.90;999.90;;;22.80;99.90;;;;;;5347271;26;20015;-64
2024/04/08 10:37:20;;;;;;;1999.90;999.90;;;22.70;99.90;;;;;;5362885;26;20604;-69
2024/04/08 10:39:46;;;;;;;1999.90;999.90;;;22.70;99.90;;;;;;5341226;26;20004;-66
2024/04/08 10:42:14;;;;;;;1999.90;999.90;;;23.00;99.90;;;;;;5352316;26;20023;-64
2024/04/08 10:44:40;;;;;;;1999.90;999.90;;;22.90;99.90;;;;;;5345224;26;20029;-67
2024/04/08 10:47:07;;;;;;;1999.90;999.90;;;23.00;99.90;;;;;;5354323;26;19993;-67
2024/04/08 10:49:35;;;;;;;1999.90;999.90;;;22.90;99.90;;;;;;5352914;26;19997;-69
2024/04/08 10:52:02;;;;;;;1999.90;999.90;;;22.80;99.90;;;;;;5350025;26;20452;-63
2024/04/08 10:54:27;;;;;;;1999.90;999.90;;;22.40;99.90;;;;;;5356767;26;20004;-66
2024/04/08 10:56:56;;;;;;;1999.90;999.90;;;22.50;99.90;;;;;;5358317;26;20033;-69
2024/04/08 10:59:22;;;;;;;1999.90;999.90;;;22.60;99.90;;;;;;5346485;26;20011;-67
2024/04/08 11:01:48;;;;;;;1999.90;999.90;;;22.40;99.90;;;;;;5344792;26;20333;-66
2024/04/08 11:04:14;;;;;;;1999.90;999.90;;;22.30;99.90;;;;;;5349793;26;20000;-67
2024/04/08 11:06:40;;;;;;;1999.90;999.90;;;22.40;99.90;;;;;;5354606;26;19993;-66
2024/04/08 11:09:06;;;;;;;1999.90;999.90;;;22.30;99.90;;;;;;5357280;26;20015;-67
2024/04/08 11:11:33;;;;;;;1999.90;999.90;;;22.30;99.90;;;;;;5350774;26;20007;-65
2024/04/08 11:13:58;;;;;;;1999.90;999.90;;;22.00;99.90;;;;;;5348815;26;20003;-66
2024/04/08 11:16:26;;;;;;;1999.90;999.90;;;21.80;99.90;;;;;;5353881;26;19997;-65
2024/04/08 11:18:52;;;;;;;1999.90;999.90;;;21.60;99.90;;;;;;5360890;26;20004;-66
2024/04/08 11:21:18;;;;;;;1999.90;999.90;;;21.40;99.90;;;;;;5361220;26;20019;-66
2024/04/08 11:23:44;;;;;;;1999.90;999.90;;;21.30;99.90;;;;;;5348221;26;20004;-67
2024/04/08 11:26:10;;;;;;;1999.90;999.90;;;21.40;99.90;;;;;;5350198;26;20040;-67
2024/04/08 11:28:36;;;;;;;1999.90;999.90;;;21.30;99.90;;;;;;5359437;26;20086;-66
2024/04/08 11:31:06;;;;;;;1999.90;999.90;;;21.30;99.90;;;;;;5359769;26;20008;-65
2024/04/08 11:33:32;;;;;;;1999.90;999.90;;;21.10;99.90;;;;;;5341999;26;20060;-66
2024/04/08 11:35:58;;;;;;;1999.90;999.90;;;21.20;99.90;;;;;;5341560;26;20078;-66
2024/04/08 11:38:23;;;;;;;1999.90;999.90;;;21.10;99.90;;;;;;5369923;26;19992;-67
2024/04/08 11:40:49;;;;;;;1999.90;999.90;;;21.10;99.90;;;;;;5367265;26;20069;-66
2024/04/08 11:43:15;;;;;;;1999.90;999.90;;;20.90;99.90;;;;;;5350695;26;20009;-66
2024/04/08 11:45:41;;;;;;;1999.90;999.90;;;20.90;99.90;;;;;;5351719;26;20452;-66
2024/04/08 11:48:08;;;;;;;1999.90;999.90;;;20.90;99.90;;;;;;5360681;26;20074;-66
2024/04/08 11:50:34;;;;;;;1999.90;999.90;;;20.90;99.90;;;;;;5350974;26;20338;-65
2024/04/08 11:53:00;;;;;;;1999.90;999.90;;;20.80;99.90;;;;;;5342304;26;20357;-65
2024/04/08 11:55:25;;;;;;;1999.90;999.90;;;20.80;99.90;;;;;;5361178;26;20004;-65
2024/04/08 11:57:51;;;;;;;1999.90;999.90;;;20.80;99.90;;;;;;5358211;26;20016;-65